createdAt,value
2022-09-07T00:00:03.376Z,99166.25
2022-09-07T00:02:34.136Z,99164.89
2022-09-07T00:05:05.701Z,99169.40
2022-09-07T00:07:36.592Z,99167.70
2022-09-07T00:10:09.169Z,99169.84
2022-09-07T00:12:40.214Z,99166.45
2022-09-07T00:15:13.715Z,99163.19
2022-09-07T00:17:44.382Z,99163.65
2022-09-07T00:20:15.655Z,99161.83
2022-09-07T00:22:46.681Z,99164.02
2022-09-07T00:25:17.633Z,99165.77
2022-09-07T00:27:49.043Z,99162.13
2022-09-07T00:30:20.437Z,99163.89
2022-09-07T00:32:51.067Z,99161.83
2022-09-07T00:35:22.157Z,99159.27
2022-09-07T00:37:52.916Z,99159.18
2022-09-07T00:40:23.862Z,99155.91
2022-09-07T00:42:54.714Z,99159.00
2022-09-07T00:45:26.245Z,99162.34
2022-09-07T00:48:02.112Z,99164.08
2022-09-07T00:50:37.866Z,99161.90
2022-09-07T00:53:12.107Z,99164.09
2022-09-07T00:55:45.514Z,99162.34
2022-09-07T00:58:17.057Z,99163.14
2022-09-07T01:00:50.033Z,99160.20
2022-09-07T01:03:25.750Z,99155.35
2022-09-07T01:06:01.341Z,99145.95
2022-09-07T01:08:32.279Z,99140.02
2022-09-07T01:11:04.109Z,99139.80
2022-09-07T01:13:35.138Z,99143.66
2022-09-07T01:16:14.118Z,99133.75
2022-09-07T01:18:53.918Z,99134.44
2022-09-07T01:21:35.123Z,99130.58
2022-09-07T01:24:34.320Z,99133.80
2022-09-07T01:27:41.893Z,99135.94
2022-09-07T01:30:15.760Z,99133.52
2022-09-07T01:33:03.290Z,99132.33
2022-09-07T01:35:42.521Z,99131.83
2022-09-07T01:38:22.175Z,99132.10
2022-09-07T01:40:58.654Z,99129.52
2022-09-07T01:43:38.017Z,99121.43
2022-09-07T01:46:23.090Z,99115.97
2022-09-07T01:48:57.360Z,99114.08
2022-09-07T01:51:33.294Z,99111.76
2022-09-07T01:54:10.470Z,99113.14
2022-09-07T01:56:46.707Z,99115.23
2022-09-07T01:59:24.999Z,99118.98
2022-09-07T02:02:01.969Z,99120.53
2022-09-07T02:04:37.455Z,99117.44
2022-09-07T02:07:14.108Z,99111.90
2022-09-07T02:09:50.450Z,99107.91
2022-09-07T02:12:31.023Z,99109.69
2022-09-07T02:15:06.281Z,99111.39
2022-09-07T02:17:41.230Z,99110.81
2022-09-07T02:20:16.685Z,99107.92
2022-09-07T02:22:51.250Z,99112.38
2022-09-07T02:25:27.238Z,99112.94
2022-09-07T02:28:03.223Z,99112.94
2022-09-07T02:30:34.149Z,99109.59
2022-09-07T02:33:05.535Z,99110.73
2022-09-07T02:35:36.967Z,99109.73
2022-09-07T02:38:09.255Z,99107.85
2022-09-07T02:40:40.283Z,99102.46
2022-09-07T02:43:12.787Z,99104.27
2022-09-07T02:45:59.206Z,99098.39
2022-09-07T02:48:37.905Z,99099.09
2022-09-07T02:51:17.513Z,99099.65
2022-09-07T02:54:05.741Z,99095.39
2022-09-07T02:56:52.202Z,99099.27
2022-09-07T02:59:38.395Z,99097.85
2022-09-07T03:02:15.425Z,99099.20
2022-09-07T03:04:51.701Z,99102.98
2022-09-07T03:07:29.036Z,99102.07
2022-09-07T03:10:03.720Z,99097.08
2022-09-07T03:12:44.915Z,99093.02
2022-09-07T03:15:17.148Z,99086.67
2022-09-07T03:17:48.121Z,99086.72
2022-09-07T03:20:20.433Z,99087.59
2022-09-07T03:22:53.207Z,99084.21
2022-09-07T03:25:24.219Z,99085.80
2022-09-07T03:27:54.940Z,99083.23
2022-09-07T03:30:25.611Z,99083.70
2022-09-07T03:32:56.490Z,99083.95
2022-09-07T03:35:27.209Z,99079.24
2022-09-07T03:37:57.872Z,99073.11
2022-09-07T03:40:28.977Z,99073.86
2022-09-07T03:42:59.651Z,99073.05
2022-09-07T03:45:30.406Z,99072.52
2022-09-07T03:48:01.091Z,99075.80
2022-09-07T03:50:31.773Z,99074.89
2022-09-07T03:53:02.704Z,99076.11
2022-09-07T03:55:33.476Z,99078.83
2022-09-07T03:58:04.486Z,99080.94
2022-09-07T04:00:35.503Z,99082.45
2022-09-07T04:03:06.693Z,99082.27
2022-09-07T04:05:37.477Z,99084.14
2022-09-07T04:08:08.672Z,99081.95
2022-09-07T04:10:41.724Z,99069.61
2022-09-07T04:16:00.152Z,99066.36
2022-09-07T04:18:31.374Z,99058.44
2022-09-07T04:21:02.813Z,99056.16
2022-09-07T04:23:33.574Z,99057.25
2022-09-07T04:26:04.350Z,99053.91
2022-09-07T04:28:35.255Z,99056.15
2022-09-07T04:31:06.308Z,99056.80
2022-09-07T04:33:36.985Z,99058.56
2022-09-07T04:36:09.004Z,99058.98
2022-09-07T04:38:40.150Z,99063.30
2022-09-07T04:41:14.300Z,99067.78
2022-09-07T04:43:45.941Z,99070.62
2022-09-07T04:46:21.912Z,99078.02
2022-09-07T04:48:54.200Z,99075.23
2022-09-07T04:51:26.283Z,99080.37
2022-09-07T04:54:00.296Z,99077.61
2022-09-07T04:56:31.674Z,99075.80
2022-09-07T04:59:04.171Z,99074.80
2022-09-07T05:01:35.249Z,99074.48
2022-09-07T05:04:06.774Z,99072.91
2022-09-07T05:06:37.524Z,99081.70
2022-09-07T05:09:08.655Z,99083.24
2022-09-07T05:11:39.663Z,99083.65
2022-09-07T05:14:11.016Z,99084.13
2022-09-07T05:16:42.063Z,99078.91
2022-09-07T05:19:16.036Z,99081.64
2022-09-07T05:21:46.693Z,99072.46
2022-09-07T05:24:17.447Z,99080.33
2022-09-07T05:26:48.324Z,99081.95
2022-09-07T05:32:10.224Z,99094.28
2022-09-07T05:34:40.934Z,99093.95
2022-09-07T05:37:11.975Z,99099.21
2022-09-07T05:39:42.827Z,99098.30
2022-09-07T05:42:13.919Z,99100.49
2022-09-07T05:44:45.418Z,99102.66
2022-09-07T05:47:16.822Z,99101.83
2022-09-07T05:49:47.601Z,99101.83
2022-09-07T05:52:18.356Z,99108.08
2022-09-07T05:54:49.927Z,99107.75
2022-09-07T05:57:20.599Z,99105.14
2022-09-07T05:59:51.372Z,99105.13
2022-09-07T06:02:22.152Z,99109.20
2022-09-07T06:04:53.036Z,99111.30
2022-09-07T06:07:23.834Z,99109.27
2022-09-07T06:12:49.220Z,99109.92
2022-09-07T06:15:20.502Z,99107.46
2022-09-07T06:17:51.265Z,99104.13
2022-09-07T06:20:22.030Z,99097.95
2022-09-07T06:22:52.742Z,99105.20
2022-09-07T06:25:23.509Z,99108.65
2022-09-07T06:27:54.469Z,99103.14
2022-09-07T06:30:25.496Z,99103.78
2022-09-07T06:32:56.284Z,99103.04
2022-09-07T06:35:27.213Z,99103.23
2022-09-07T06:37:58.340Z,99097.23
2022-09-07T06:40:29.160Z,99096.59
2022-09-07T06:42:59.903Z,99095.69
2022-09-07T06:45:30.649Z,99099.68
2022-09-07T06:48:01.328Z,99101.69
2022-09-07T06:50:32.425Z,99103.88
2022-09-07T06:55:54.357Z,99106.83
2022-09-07T06:58:26.038Z,99104.33
2022-09-07T07:00:57.501Z,99104.73
2022-09-07T07:03:29.514Z,99108.66
2022-09-07T07:06:00.483Z,99104.93
2022-09-07T07:08:31.649Z,99102.57
2022-09-07T07:11:07.960Z,99101.35
2022-09-07T07:13:39.562Z,99103.98
2022-09-07T07:16:12.362Z,99105.00
2022-09-07T07:18:44.313Z,99105.52
2022-09-07T07:21:16.855Z,99109.09
2022-09-07T07:23:50.540Z,99103.54
2022-09-07T07:26:23.821Z,99105.29
2022-09-07T07:29:03.715Z,99110.55
2022-09-07T07:31:35.222Z,99108.44
2022-09-07T07:34:05.999Z,99109.26
2022-09-07T07:36:36.879Z,99108.05
2022-09-07T07:39:07.667Z,99110.25
2022-09-07T07:41:55.431Z,99104.77
2022-09-07T07:44:28.306Z,99107.66
2022-09-07T07:46:59.471Z,99106.36
2022-09-07T07:49:30.317Z,99108.26
2022-09-07T07:54:51.881Z,99093.71
2022-09-07T07:57:22.688Z,99090.79
2022-09-07T07:59:53.425Z,99087.63
2022-09-07T08:02:24.203Z,99085.63
2022-09-07T08:04:55.040Z,99083.37
2022-09-07T08:07:25.746Z,99079.01
2022-09-07T08:09:56.582Z,99084.15
2022-09-07T08:12:29.782Z,99081.90
2022-09-07T08:14:59.087Z,99086.88
2022-09-07T08:17:30.356Z,99088.77
2022-09-07T08:20:01.075Z,99083.21
2022-09-07T08:22:34.828Z,99086.21
2022-09-07T08:25:07.227Z,99083.96
2022-09-07T08:27:38.245Z,99091.85
2022-09-07T08:30:12.453Z,99091.84
2022-09-07T08:32:43.252Z,99085.58
2022-09-07T08:35:14.250Z,99084.81
2022-09-07T08:37:45.041Z,99082.62
2022-09-07T08:40:19.367Z,99084.35
2022-09-07T08:43:04.328Z,99084.98
2022-09-07T08:45:39.316Z,99084.26
2022-09-07T08:48:16.133Z,99083.38
2022-09-07T08:50:56.359Z,99084.31
2022-09-07T08:53:27.801Z,99078.52
2022-09-07T08:56:02.148Z,99078.05
2022-09-07T08:58:49.273Z,99073.65
2022-09-07T09:01:32.524Z,99074.61
2022-09-07T09:04:21.790Z,99073.55
2022-09-07T09:07:11.765Z,99072.53
2022-09-07T09:10:02.041Z,99070.25
2022-09-07T09:12:44.017Z,99071.91
2022-09-07T09:15:21.586Z,99072.42
2022-09-07T09:18:01.280Z,99075.80
2022-09-07T09:20:40.346Z,99065.54
2022-09-07T09:23:14.873Z,99067.27
2022-09-07T09:25:53.405Z,99071.20
2022-09-07T09:28:26.511Z,99072.80
2022-09-07T09:31:00.030Z,99077.02
2022-09-07T09:33:31.613Z,99070.52
2022-09-07T09:36:03.519Z,99073.63
2022-09-07T09:38:39.546Z,99073.51
2022-09-07T09:41:12.495Z,99069.66
2022-09-07T09:43:45.985Z,99061.81
2022-09-07T09:46:23.909Z,99057.67
2022-09-07T09:49:01.385Z,99055.69
2022-09-07T09:54:38.728Z,99050.02
2022-09-07T09:57:14.325Z,99052.38
2022-09-07T10:00:05.329Z,99046.23
2022-09-07T10:05:35.314Z,99044.39
2022-09-07T10:08:17.034Z,99045.58
2022-09-07T10:11:00.473Z,99040.94
2022-09-07T10:13:35.208Z,99037.12
2022-09-07T10:16:09.464Z,99031.36
2022-09-07T10:18:42.809Z,99023.41
2022-09-07T10:21:28.814Z,99021.09
2022-09-07T10:24:15.488Z,99013.35
2022-09-07T10:26:48.736Z,99015.95
2022-09-07T10:29:29.382Z,99009.30
2022-09-07T10:32:14.132Z,99009.89
2022-09-07T10:34:57.073Z,99013.00
2022-09-07T10:37:42.323Z,99015.48
2022-09-07T10:40:23.193Z,99010.80
2022-09-07T10:46:07.499Z,99013.73
2022-09-07T10:48:46.679Z,99011.58
2022-09-07T10:51:27.370Z,99018.49
2022-09-07T10:57:10.450Z,99011.03
2022-09-07T11:00:09.353Z,99010.66
2022-09-07T11:05:59.169Z,99003.33
2022-09-07T11:14:31.125Z,98999.92
2022-09-07T11:17:06.566Z,98998.63
2022-09-07T11:19:44.729Z,99001.42
2022-09-07T11:22:27.546Z,98997.02
2022-09-07T11:27:57.330Z,98994.69
2022-09-07T11:30:32.518Z,98995.66
2022-09-07T11:33:08.584Z,98997.95
2022-09-07T11:35:46.391Z,98992.65
2022-09-07T11:38:26.619Z,98987.42
2022-09-07T11:41:09.852Z,98984.09
2022-09-07T11:43:44.890Z,98983.21
2022-09-07T11:46:20.890Z,98975.66
2022-09-07T11:48:55.774Z,98967.09
2022-09-07T11:51:36.598Z,98964.67
2022-09-07T11:54:21.199Z,98956.48
2022-09-07T11:56:58.173Z,98954.55
2022-09-07T11:59:40.143Z,98954.16
2022-09-07T12:02:58.181Z,98948.78
2022-09-07T12:05:43.990Z,98944.79
2022-09-07T12:08:31.181Z,98942.59
2022-09-07T12:11:24.333Z,98944.00
2022-09-07T12:14:12.410Z,98943.04
2022-09-07T12:17:09.997Z,98935.30
2022-09-07T12:19:39.324Z,98933.27
2022-09-07T12:22:22.554Z,98931.69
2022-09-07T12:24:54.205Z,98935.05
2022-09-07T12:27:40.783Z,98932.09
2022-09-07T12:30:54.451Z,98928.17
2022-09-07T12:33:34.411Z,98924.39
2022-09-07T12:36:35.503Z,98924.69
2022-09-07T12:39:24.982Z,98919.25
2022-09-07T12:42:32.273Z,98913.23
2022-09-07T12:45:34.187Z,98907.52
2022-09-07T12:48:14.625Z,98909.16
2022-09-07T12:50:56.952Z,98906.16
2022-09-07T12:53:33.951Z,98908.60
2022-09-07T12:56:20.641Z,98904.03
2022-09-07T12:59:02.492Z,98906.88
2022-09-07T13:01:52.929Z,98909.42
2022-09-07T13:04:43.938Z,98909.67
2022-09-07T13:07:41.362Z,98905.91
2022-09-07T13:10:30.482Z,98901.83
2022-09-07T13:13:06.877Z,98903.70
2022-09-07T13:15:44.351Z,98900.30
2022-09-07T13:18:43.114Z,98900.97
2022-09-07T13:21:34.311Z,98899.29
2022-09-07T13:24:46.251Z,98893.35
2022-09-07T13:27:44.047Z,98890.37
2022-09-07T13:30:27.524Z,98884.41
2022-09-07T13:33:48.421Z,98883.84
2022-09-07T13:36:27.774Z,98882.64
2022-09-07T13:38:57.988Z,98879.23
2022-09-07T13:41:35.190Z,98872.64
2022-09-07T13:44:06.621Z,98874.15
2022-09-07T13:46:57.404Z,98869.73
2022-09-07T13:49:50.417Z,98868.66
2022-09-07T13:52:31.418Z,98864.02
2022-09-07T13:55:14.303Z,98868.65
2022-09-07T13:57:55.510Z,98868.66
2022-09-07T14:00:26.780Z,98869.25
2022-09-07T14:03:02.027Z,98862.64
2022-09-07T14:05:33.193Z,98862.48
2022-09-07T14:08:04.292Z,98862.98
2022-09-07T14:10:35.031Z,98861.81
2022-09-07T14:13:14.504Z,98862.04
2022-09-07T14:15:47.428Z,98855.67
2022-09-07T14:18:19.859Z,98858.00
2022-09-07T14:20:52.657Z,98854.45
2022-09-07T14:23:32.754Z,98849.39
2022-09-07T14:26:18.261Z,98847.35
2022-09-07T14:28:51.926Z,98844.90
2022-09-07T14:31:25.265Z,98839.10
2022-09-07T14:33:57.812Z,98829.13
2022-09-07T14:36:45.239Z,98827.02
2022-09-07T14:39:18.657Z,98825.30
2022-09-07T14:41:50.072Z,98811.39
2022-09-07T14:44:32.565Z,98809.95
2022-09-07T14:47:13.196Z,98808.31
2022-09-07T14:50:06.350Z,98818.16
2022-09-07T14:53:33.353Z,98829.16
2022-09-07T14:55:35.768Z,98822.11
2022-09-07T14:58:22.185Z,98807.95
2022-09-07T15:03:59.702Z,98800.42
2022-09-07T15:09:39.561Z,98811.86
2022-09-07T15:12:27.158Z,98815.61
2022-09-07T15:15:12.780Z,98818.20
2022-09-07T15:17:44.167Z,98827.66
2022-09-07T15:20:44.187Z,98837.32
2022-09-07T15:23:16.819Z,98834.13
2022-09-07T15:25:51.848Z,98820.92
2022-09-07T15:34:15.771Z,98906.02
2022-09-07T15:36:51.823Z,98913.58
2022-09-07T15:39:25.276Z,98894.00
2022-09-07T15:41:56.983Z,98896.20
2022-09-07T15:44:28.459Z,98910.82
2022-09-07T15:49:53.703Z,98921.58
2022-09-07T15:52:24.698Z,98919.23
2022-09-07T15:54:56.681Z,98919.41
2022-09-07T16:00:19.252Z,98899.73
2022-09-07T16:03:08.398Z,98892.95
2022-09-07T16:05:44.370Z,98890.24
2022-09-07T16:11:18.523Z,98899.45
2022-09-07T16:13:50.444Z,98880.84
2022-09-07T16:16:21.502Z,98876.94
2022-09-07T16:18:53.675Z,98872.56
2022-09-07T16:21:26.320Z,98864.94
2022-09-07T16:23:58.939Z,98855.89
2022-09-07T16:26:29.883Z,98849.52
2022-09-07T16:29:01.653Z,98848.00
2022-09-07T16:31:33.589Z,98850.30
2022-09-07T16:34:05.867Z,98849.46
2022-09-07T16:36:37.161Z,98846.64
2022-09-07T16:39:08.198Z,98839.14
2022-09-07T16:41:39.180Z,98845.23
2022-09-07T16:44:10.068Z,98851.12
2022-09-07T16:46:41.058Z,98861.10
2022-09-07T16:49:13.175Z,98865.96
2022-09-07T16:51:45.801Z,98863.08
2022-09-07T16:54:17.085Z,98860.77
2022-09-07T16:56:48.061Z,98865.23
2022-09-07T16:59:21.493Z,98867.01
2022-09-07T17:01:52.393Z,98871.21
2022-09-07T17:04:23.605Z,98878.48
2022-09-07T17:06:54.622Z,98883.43
2022-09-07T17:09:26.860Z,98884.69
2022-09-07T17:11:57.616Z,98887.31
2022-09-07T17:14:29.469Z,98885.04
2022-09-07T17:17:00.587Z,98878.46
2022-09-07T17:19:32.207Z,98874.30
2022-09-07T17:22:03.811Z,98870.55
2022-09-07T17:24:35.067Z,98866.58
2022-09-07T17:27:06.765Z,98878.38
2022-09-07T17:29:37.826Z,98880.29
2022-09-07T17:32:25.483Z,98876.48
2022-09-07T17:34:56.859Z,98865.89
2022-09-07T17:37:28.069Z,98861.56
2022-09-07T17:39:59.220Z,98862.80
2022-09-07T17:45:21.383Z,98857.75
2022-09-07T17:47:52.398Z,98851.37
2022-09-07T17:50:23.500Z,98852.58
2022-09-07T17:52:54.422Z,98845.71
2022-09-07T17:55:25.483Z,98853.86
2022-09-07T17:57:56.266Z,98860.46
2022-09-07T18:00:27.396Z,98858.03
2022-09-07T18:02:59.236Z,98857.86
2022-09-07T18:05:30.205Z,98859.26
2022-09-07T18:08:01.184Z,98859.27
2022-09-07T18:11:44.862Z,98857.37
2022-09-07T18:13:33.715Z,98860.36
2022-09-07T18:16:15.256Z,98868.53
2022-09-07T18:18:46.959Z,98868.84
2022-09-07T18:21:21.639Z,98866.56
2022-09-07T18:23:56.764Z,98871.04
2022-09-07T18:26:28.107Z,98867.92
2022-09-07T18:29:13.139Z,98863.27
2022-09-07T18:31:50.634Z,98855.25
2022-09-07T18:34:22.086Z,98855.81
2022-09-07T18:36:53.817Z,98856.88
2022-09-07T18:39:25.947Z,98854.66
2022-09-07T18:41:58.324Z,98848.09
2022-09-07T18:47:28.001Z,98849.79
2022-09-07T18:50:00.183Z,98848.19
2022-09-07T18:55:24.256Z,98848.91
2022-09-07T18:57:57.584Z,98851.34
2022-09-07T19:00:27.714Z,98856.54
2022-09-07T19:02:59.702Z,98859.62
2022-09-07T19:08:21.944Z,98867.09
2022-09-07T19:10:53.234Z,98861.40
2022-09-07T19:13:24.161Z,98850.73
2022-09-07T19:15:55.266Z,98845.98
2022-09-07T19:18:26.707Z,98849.08
2022-09-07T19:20:57.642Z,98846.98
2022-09-07T19:23:28.651Z,98845.34
2022-09-07T19:26:02.450Z,98841.34
2022-09-07T19:28:33.838Z,98841.60
2022-09-07T19:31:07.245Z,98836.38
2022-09-07T19:33:38.201Z,98838.44
2022-09-07T19:36:10.339Z,98838.59
2022-09-07T19:38:41.245Z,98838.77
2022-09-07T19:41:14.115Z,98838.55
2022-09-07T19:43:45.749Z,98839.52
2022-09-07T19:46:21.404Z,98838.71
2022-09-07T19:48:55.294Z,98837.48
2022-09-07T19:51:26.568Z,98833.55
2022-09-07T19:53:59.210Z,98833.70
2022-09-07T19:56:30.272Z,98832.98
2022-09-07T19:59:01.437Z,98831.67
2022-09-07T20:01:32.585Z,98825.88
2022-09-07T20:04:06.252Z,98821.72
2022-09-07T20:06:36.247Z,98820.91
2022-09-07T20:09:08.225Z,98819.64
2022-09-07T20:11:41.787Z,98821.23
2022-09-07T20:14:15.689Z,98826.44
2022-09-07T20:16:46.614Z,98827.75
2022-09-07T20:19:19.724Z,98824.95
2022-09-07T20:21:55.777Z,98821.70
2022-09-07T20:24:26.726Z,98819.98
2022-09-07T20:26:57.577Z,98822.84
2022-09-07T20:29:29.212Z,98828.02
2022-09-07T20:32:01.723Z,98833.59
2022-09-07T20:34:33.643Z,98836.36
2022-09-07T20:37:05.547Z,98835.64
2022-09-07T20:39:39.373Z,98842.99
2022-09-07T20:42:10.798Z,98840.11
2022-09-07T20:44:41.536Z,98839.20
2022-09-07T20:47:12.281Z,98843.28
2022-09-07T20:49:43.080Z,98843.38
2022-09-07T20:52:13.958Z,98841.34
2022-09-07T20:54:44.625Z,98837.39
2022-09-07T20:57:15.437Z,98834.20
2022-09-07T20:59:46.170Z,98830.61
2022-09-07T21:02:17.105Z,98826.18
2022-09-07T21:04:47.962Z,98829.51
2022-09-07T21:07:18.901Z,98830.77
2022-09-07T21:09:49.945Z,98832.63
2022-09-07T21:12:20.892Z,98832.54
2022-09-07T21:14:51.712Z,98834.52
2022-09-07T21:17:22.469Z,98835.93
2022-09-07T21:19:53.203Z,98839.48
2022-09-07T21:22:23.872Z,98841.20
2022-09-07T21:24:54.577Z,98838.60
2022-09-07T21:27:25.667Z,98840.06
2022-09-07T21:29:56.359Z,98841.67
2022-09-07T21:32:26.996Z,98839.17
2022-09-07T21:34:57.941Z,98834.71
2022-09-07T21:37:28.574Z,98827.80
2022-09-07T21:39:59.253Z,98832.36
2022-09-07T21:42:29.912Z,98828.92
2022-09-07T21:45:00.735Z,98828.27
2022-09-07T21:47:31.528Z,98828.02
2022-09-07T21:50:02.178Z,98823.08
2022-09-07T21:52:32.854Z,98820.73
2022-09-07T21:55:03.520Z,98818.61
2022-09-07T21:57:34.206Z,98814.34
2022-09-07T22:00:05.908Z,98816.38
2022-09-07T22:02:36.774Z,98815.89
2022-09-07T22:05:08.404Z,98815.83
2022-09-07T22:07:39.274Z,98808.96
2022-09-07T22:10:11.248Z,98804.68
2022-09-07T22:12:41.954Z,98805.23
2022-09-07T22:15:13.467Z,98806.84
2022-09-07T22:17:46.278Z,98808.13
2022-09-07T22:20:18.108Z,98802.83
2022-09-07T22:22:48.789Z,98801.00
2022-09-07T22:25:19.840Z,98798.87
2022-09-07T22:27:50.501Z,98795.70
2022-09-07T22:30:21.351Z,98794.15
2022-09-07T22:32:52.795Z,98788.70
2022-09-07T22:35:25.072Z,98784.52
2022-09-07T22:37:56.012Z,98774.97
2022-09-07T22:40:26.957Z,98772.77
2022-09-07T22:42:57.620Z,98769.52
2022-09-07T22:48:17.235Z,98755.79
2022-09-07T22:50:54.780Z,98754.63
2022-09-07T22:53:25.734Z,98756.77
2022-09-07T22:55:56.849Z,98758.79
2022-09-07T22:58:29.146Z,98755.60
2022-09-07T23:01:01.785Z,98752.02
2022-09-07T23:03:34.075Z,98746.95
2022-09-07T23:06:05.654Z,98741.64
2022-09-07T23:08:36.343Z,98735.45
2022-09-07T23:11:07.800Z,98730.23
2022-09-07T23:13:38.788Z,98732.62
2022-09-07T23:16:10.772Z,98729.92
2022-09-07T23:18:42.593Z,98727.48
2022-09-07T23:21:13.844Z,98727.47
2022-09-07T23:23:44.592Z,98725.27
2022-09-07T23:26:15.546Z,98719.23
2022-09-07T23:28:46.569Z,98715.80
2022-09-07T23:31:17.332Z,98713.44
2022-09-07T23:33:48.376Z,98712.05
2022-09-07T23:36:20.137Z,98707.00
2022-09-07T23:38:51.592Z,98703.89
2022-09-07T23:41:22.210Z,98699.23
2022-09-07T23:43:53.069Z,98698.98
2022-09-07T23:46:23.959Z,98700.79
2022-09-07T23:48:54.956Z,98698.31
2022-09-07T23:51:25.708Z,98696.34
2022-09-07T23:53:56.737Z,98695.85
2022-09-07T23:56:27.475Z,98695.83
2022-09-07T23:58:58.423Z,98696.54
